Time;durP1;ratioP1;P1;durP2;ratioP2;P2;SDS_P1;SDS_P2;PMS_P1;PMS_P2;Temp;Humidity;BMP_temperature;BMP_pressure;BME280_temperature;BME280_humidity;BME280_pressure;Samples;Min_cycle;Max_cycle;Signal;HPM_P1;HPM_P2
2022/05/24 00:01:22;;;;;;;8.35;7.55;;;;;;;19.35;69.69;98402.13;4975458;28;20378;-86
2022/05/24 00:03:47;;;;;;;9.00;6.82;;;;;;;19.32;69.22;98394.47;4975435;28;20535;-83
2022/05/24 00:06:13;;;;;;;5.95;5.45;;;;;;;19.38;69.42;98390.81;4975285;28;20034;-83
2022/05/24 00:08:38;;;;;;;7.28;6.57;;;;;;;19.49;69.81;98392.75;4958106;28;20082;-79
2022/05/24 00:11:04;;;;;;;7.85;6.57;;;;;;;19.48;69.75;98399.22;4975235;28;20110;-82
2022/05/24 00:13:29;;;;;;;7.40;6.07;;;;;;;19.58;68.69;98393.25;4975686;28;20043;-88
2022/05/24 00:15:54;;;;;;;6.75;6.05;;;;;;;19.46;68.43;98395.91;4974395;28;20374;-83
2022/05/24 00:18:22;;;;;;;6.20;5.60;;;;;;;19.56;68.67;98388.06;4972869;28;20365;-83
2022/05/24 00:20:49;;;;;;;6.88;6.07;;;;;;;19.50;68.93;98399.81;4974974;28;20132;-84
2022/05/24 00:23:14;;;;;;;8.27;6.40;;;;;;;19.41;68.48;98399.34;4941491;28;20031;-84
2022/05/24 00:25:43;;;;;;;9.88;6.30;;;;;;;19.38;67.87;98398.94;4957736;28;20477;-79
2022/05/24 00:28:09;;;;;;;6.68;5.95;;;;;;;19.39;68.15;98403.31;4938089;29;20260;-79
2022/05/24 00:30:35;;;;;;;8.73;5.47;;;;;;;19.45;69.01;98392.38;4938153;29;20033;-79
2022/05/24 00:33:01;;;;;;;7.05;5.78;;;;;;;19.44;68.27;98398.03;4970528;28;20023;-79
2022/05/24 00:35:26;;;;;;;6.82;6.13;;;;;;;19.37;67.68;98402.72;4974687;28;20031;-79
2022/05/24 00:37:52;;;;;;;7.05;6.10;;;;;;;19.31;67.45;98407.19;4974550;28;20030;-79
2022/05/24 00:40:44;;;;;;;6.32;5.72;;;;;;;19.38;68.29;98413.31;4974378;28;20118;-80
2022/05/24 00:43:21;;;;;;;7.05;6.38;;;;;;;19.38;68.32;98416.03;4974460;28;20034;-80
2022/05/24 00:45:49;;;;;;;7.13;6.13;;;;;;;19.25;67.16;98415.41;4957091;28;20054;-79
2022/05/24 00:48:26;;;;;;;6.43;5.15;;;;;;;19.46;68.40;98407.59;4957291;28;20445;-79
2022/05/24 00:50:52;;;;;;;7.45;6.32;;;;;;;19.31;66.36;98411.78;4957107;28;20030;-82
2022/05/24 00:53:48;;;;;;;6.53;5.80;;;;;;;19.11;66.19;98410.19;4957102;28;20022;-81
2022/05/24 00:56:18;;;;;;;7.93;5.97;;;;;;;19.22;67.14;98408.59;4937711;28;20066;-80
2022/05/24 00:59:05;;;;;;;6.00;5.40;;;;;;;19.14;67.04;98417.03;4937702;29;20425;-79
2022/05/24 01:01:41;;;;;;;5.22;4.70;;;;;;;19.21;67.07;98415.06;4954442;29;20470;-79
2022/05/24 01:04:08;;;;;;;7.32;5.60;;;;;;;19.15;66.76;98421.41;4937241;29;20474;-79
2022/05/24 01:06:34;;;;;;;8.48;4.97;;;;;;;19.16;66.91;98418.47;4954730;29;20027;-79
2022/05/24 01:09:07;;;;;;;7.38;5.50;;;;;;;19.10;66.00;98424.81;4954558;29;20039;-79
2022/05/24 01:11:34;;;;;;;7.03;5.18;;;;;;;19.07;66.04;98435.28;4937611;29;20152;-79
2022/05/24 01:14:01;;;;;;;9.15;5.85;;;;;;;18.95;65.52;98413.56;4937564;29;20122;-79
2022/05/24 01:16:26;;;;;;;7.47;5.40;;;;;;;18.93;65.76;98418.41;4921780;29;20122;-79
2022/05/24 01:18:52;;;;;;;7.53;5.40;;;;;;;18.85;65.40;98421.41;4937321;29;20106;-80
2022/05/24 01:21:17;;;;;;;8.15;5.47;;;;;;;18.85;65.57;98413.25;4954446;29;20042;-79
2022/05/24 01:24:08;;;;;;;9.40;5.40;;;;;;;18.66;65.68;98414.38;4937354;29;20043;-79
2022/05/24 01:26:39;;;;;;;5.43;4.57;;;;;;;18.74;65.68;98422.16;4937030;29;20027;-79
2022/05/24 01:29:07;;;;;;;5.82;4.85;;;;;;;18.70;65.61;98415.56;4954274;29;20058;-79
2022/05/24 01:37:02;;;;;;;6.30;4.60;;;;;;;18.73;64.56;98418.63;4954393;29;20039;-79
2022/05/24 01:39:28;;;;;;;6.65;4.68;;;;;;;18.60;65.31;98418.78;4936813;29;20031;-79
2022/05/24 01:41:53;;;;;;;6.20;3.90;;;;;;;18.69;65.39;98430.97;4954170;29;20031;-79
2022/05/24 01:44:37;;;;;;;4.70;3.63;;;;;;;18.77;65.20;98425.25;4954302;29;20097;-78
2022/05/24 01:47:03;;;;;;;4.85;3.70;;;;;;;18.75;64.92;98430.06;4921252;29;20030;-80
2022/05/24 01:49:31;;;;;;;5.57;3.50;;;;;;;18.61;63.70;98427.72;4954207;28;20035;-79
2022/05/24 01:52:02;;;;;;;7.97;3.28;;;;;;;18.59;64.50;98427.13;4921044;29;20402;-79
2022/05/24 01:54:28;;;;;;;5.50;3.20;;;;;;;18.56;63.98;98426.53;4937035;29;20038;-79
2022/05/24 01:57:01;;;;;;;6.28;3.13;;;;;;;18.49;64.27;98435.78;4937140;29;20474;-79
2022/05/24 01:59:27;;;;;;;4.28;2.88;;;;;;;18.60;64.76;98428.78;4937025;29;20066;-80
2022/05/24 02:01:55;;;;;;;6.78;3.60;;;;;;;18.57;64.24;98440.91;4936935;29;20028;-82
2022/05/24 02:04:22;;;;;;;6.57;3.10;;;;;;;18.41;63.89;98431.47;4936923;29;20023;-79
2022/05/24 02:06:58;;;;;;;5.30;3.40;;;;;;;18.33;64.36;98426.38;4953981;29;20034;-80
2022/05/24 02:09:24;;;;;;;6.45;3.30;;;;;;;18.38;65.25;98436.53;4921177;29;20477;-80
2022/05/24 02:11:49;;;;;;;4.95;3.30;;;;;;;18.49;64.68;98425.78;4936817;29;20079;-80
2022/05/24 02:14:23;;;;;;;6.57;3.50;;;;;;;18.38;64.89;98434.63;4936998;29;20162;-80
2022/05/24 02:17:02;;;;;;;4.90;3.25;;;;;;;18.47;65.41;98427.91;4936981;29;20046;-80
2022/05/24 02:19:29;;;;;;;5.20;3.20;;;;;;;18.44;65.05;98419.38;4936940;29;20102;-79
2022/05/24 02:21:57;;;;;;;5.97;3.42;;;;;;;18.40;64.89;98402.75;4936250;29;20028;-80
2022/05/24 02:24:24;;;;;;;4.80;3.22;;;;;;;18.39;64.82;98400.28;4936355;29;20072;-82
2022/05/24 02:26:50;;;;;;;4.88;3.38;;;;;;;18.29;65.28;98406.22;4921007;29;20062;-80
2022/05/24 02:29:18;;;;;;;6.20;3.28;;;;;;;18.20;64.65;98410.28;4936944;29;20286;-82
2022/05/24 02:31:43;;;;;;;4.97;3.75;;;;;;;18.25;65.91;98405.84;4937144;29;20020;-82
2022/05/24 02:34:09;;;;;;;5.72;3.63;;;;;;;18.21;64.99;98407.34;4954018;29;20038;-82
2022/05/24 02:36:35;;;;;;;6.93;3.67;;;;;;;18.15;65.28;98413.66;4937028;29;20032;-83
2022/05/24 02:39:01;;;;;;;4.75;3.20;;;;;;;18.15;65.19;98416.38;4938078;29;20034;-84
2022/05/24 02:41:29;;;;;;;4.32;3.17;;;;;;;18.08;65.61;98417.50;4957675;29;20031;-85
2022/05/24 02:43:59;;;;;;;4.85;2.72;;;;;;;18.02;65.10;98416.50;4957661;29;20031;-85
2022/05/24 02:46:25;;;;;;;3.88;2.60;;;;;;;18.13;64.59;98401.41;4940449;29;20505;-80
2022/05/24 02:48:50;;;;;;;4.45;2.60;;;;;;;18.16;65.05;98399.09;4957496;28;20027;-88
2022/05/24 02:51:16;;;;;;;4.38;2.80;;;;;;;18.19;64.42;98398.63;4941016;29;20031;-82
2022/05/24 02:53:42;;;;;;;7.38;2.58;;;;;;;18.15;64.74;98393.91;4957573;29;20019;-84
2022/05/24 02:56:08;;;;;;;3.90;2.13;;;;;;;18.15;64.80;98394.72;4957634;29;20046;-85
2022/05/24 02:58:33;;;;;;;3.90;2.45;;;;;;;18.21;64.36;98391.13;4957534;29;20046;-84
2022/05/24 03:00:59;;;;;;;4.35;2.20;;;;;;;18.05;63.80;98402.53;4957365;29;20035;-79
2022/05/24 03:03:24;;;;;;;2.47;2.00;;;;;;;17.95;64.12;98402.19;4956902;29;20474;-79
2022/05/24 03:05:50;;;;;;;4.35;2.03;;;;;;;17.93;64.47;98409.72;4956906;29;20027;-79
2022/05/24 03:11:00;;;;;;;4.30;2.00;;;;;;;17.91;63.72;98409.09;4956937;29;20190;-80
2022/05/24 03:16:11;;;;;;;4.78;2.25;;;;;;;17.97;63.37;98383.03;4957056;29;20086;-79
2022/05/24 03:18:36;;;;;;;2.30;1.48;;;;;;;17.95;64.02;98388.69;4956422;28;20484;-79
2022/05/24 03:21:02;;;;;;;4.57;2.15;;;;;;;17.93;64.14;98393.47;4957130;29;20119;-79
2022/05/24 03:23:27;;;;;;;5.07;1.95;;;;;;;17.90;63.08;98399.34;4956574;28;20027;-79
2022/05/24 03:25:52;;;;;;;5.18;1.67;;;;;;;17.88;63.08;98388.75;4939652;29;20311;-79
2022/05/24 03:28:20;;;;;;;6.30;1.92;;;;;;;17.85;64.10;98397.31;4956196;29;20106;-80
2022/05/24 03:30:45;;;;;;;4.82;1.83;;;;;;;17.75;64.31;98402.41;4956801;29;20038;-79
2022/05/24 03:33:11;;;;;;;5.38;1.88;;;;;;;17.74;64.75;98408.03;4939284;29;20393;-79
2022/05/24 03:35:36;;;;;;;3.40;1.83;;;;;;;17.80;63.53;98412.56;4956449;29;20027;-79
2022/05/24 03:38:02;;;;;;;3.45;1.95;;;;;;;17.90;63.57;98410.16;4956333;29;20126;-82
2022/05/24 03:40:27;;;;;;;3.63;1.88;;;;;;;17.91;64.16;98422.63;4939257;29;20042;-79
2022/05/24 03:42:54;;;;;;;5.38;1.90;;;;;;;17.85;63.76;98429.75;4956141;29;20038;-79
2022/05/24 03:45:20;;;;;;;3.88;1.60;;;;;;;17.83;64.32;98426.47;4956326;29;20106;-79
2022/05/24 03:47:46;;;;;;;4.57;1.88;;;;;;;17.90;63.44;98426.38;4923030;29;20110;-79
2022/05/24 03:50:11;;;;;;;3.17;1.85;;;;;;;17.89;63.95;98430.97;4937983;29;20042;-80
2022/05/24 03:52:36;;;;;;;5.28;2.22;;;;;;;17.96;64.48;98425.50;4956156;29;20484;-79
2022/05/24 03:55:03;;;;;;;4.38;1.98;;;;;;;17.89;64.46;98432.84;4956105;29;20155;-80
2022/05/24 04:00:15;;;;;;;7.05;2.00;;;;;;;17.86;63.13;98446.81;4956303;29;20114;-79
2022/05/24 04:02:40;;;;;;;3.65;1.67;;;;;;;17.89;63.92;98462.59;4938619;29;20033;-79
2022/05/24 04:05:06;;;;;;;4.13;1.70;;;;;;;17.86;63.62;98471.16;4954498;29;20039;-81
2022/05/24 04:07:31;;;;;;;6.00;1.95;;;;;;;17.87;63.78;98467.41;4955353;29;20027;-81
2022/05/24 04:09:57;;;;;;;4.15;1.65;;;;;;;17.87;64.82;98459.28;4938498;29;20110;-81
2022/05/24 04:12:22;;;;;;;3.85;1.75;;;;;;;17.80;64.20;98445.84;4955648;29;20027;-81
2022/05/24 04:14:48;;;;;;;3.78;1.42;;;;;;;17.80;65.08;98453.94;4938509;29;20453;-81
2022/05/24 04:17:13;;;;;;;3.97;1.60;;;;;;;17.86;65.24;98466.59;4955530;28;20499;-81
2022/05/24 04:19:38;;;;;;;3.88;1.40;;;;;;;18.13;65.26;98463.66;4938345;29;20030;-81
2022/05/24 04:22:04;;;;;;;2.75;1.38;;;;;;;17.94;65.76;98471.72;4955384;29;20059;-81
2022/05/24 04:24:29;;;;;;;3.15;1.38;;;;;;;17.97;65.94;98472.31;4955303;28;20075;-81
2022/05/24 04:26:54;;;;;;;4.38;1.20;;;;;;;17.90;65.95;98485.91;4955251;29;20106;-81
2022/05/24 04:29:20;;;;;;;4.15;1.42;;;;;;;17.97;66.35;98483.97;4955229;29;20042;-84
2022/05/24 04:31:45;;;;;;;3.05;1.10;;;;;;;17.98;67.35;98511.88;4955244;29;20042;-81
2022/05/24 04:34:10;;;;;;;4.05;1.20;;;;;;;17.83;65.68;98504.88;4938234;29;20034;-83
2022/05/24 04:36:36;;;;;;;7.22;1.52;;;;;;;17.95;67.24;98518.53;4955269;29;20478;-82
2022/05/24 04:39:01;;;;;;;1.98;0.98;;;;;;;17.72;66.98;98510.19;4954969;29;20027;-82
2022/05/24 04:44:10;;;;;;;3.22;1.00;;;;;;;17.81;66.74;98517.81;4940668;29;20093;-82
2022/05/24 04:49:21;;;;;;;2.90;1.23;;;;;;;17.85;67.07;98531.72;4940262;29;20073;-86
2022/05/24 04:51:47;;;;;;;4.70;1.35;;;;;;;17.77;67.17;98530.09;4921943;29;20059;-86
2022/05/24 04:54:12;;;;;;;3.30;1.10;;;;;;;17.80;67.20;98545.91;4921862;29;20089;-78
2022/05/24 04:56:37;;;;;;;4.72;1.05;;;;;;;17.62;66.70;98540.38;4954587;29;20041;-77
2022/05/24 04:59:03;;;;;;;1.77;0.82;;;;;;;17.54;65.81;98548.75;4954760;29;20110;-80
2022/05/24 05:01:28;;;;;;;3.13;0.93;;;;;;;17.50;65.63;98545.66;4954517;28;20031;-79
2022/05/24 05:03:54;;;;;;;3.00;1.10;;;;;;;17.57;66.33;98559.13;4937385;29;20110;-79
2022/05/24 05:06:20;;;;;;;2.25;0.90;;;;;;;17.42;66.42;98554.00;4954710;29;20031;-77
2022/05/24 05:08:45;;;;;;;4.05;1.23;;;;;;;17.41;66.13;98555.03;4954636;29;20115;-84
2022/05/24 05:11:11;;;;;;;3.35;1.00;;;;;;;17.39;66.51;98562.53;4937243;29;20110;-77
2022/05/24 05:13:36;;;;;;;3.53;0.82;;;;;;;17.30;66.64;98561.97;4954561;29;20035;-78
2022/05/24 05:16:01;;;;;;;2.97;0.85;;;;;;;17.29;66.39;98552.19;4954534;29;20039;-78
2022/05/24 05:18:27;;;;;;;2.72;1.08;;;;;;;17.23;65.77;98550.38;4953947;28;20068;-79
2022/05/24 05:20:52;;;;;;;1.52;0.68;;;;;;;17.24;66.70;98559.28;4967871;28;20034;-79
2022/05/24 05:23:18;;;;;;;1.52;0.75;;;;;;;17.17;65.79;98564.72;4972426;28;20041;-80
2022/05/24 05:25:47;;;;;;;3.42;0.80;;;;;;;17.13;66.67;98565.38;4963678;28;20027;-81
2022/05/24 05:28:16;;;;;;;2.88;1.00;;;;;;;17.15;66.16;98566.00;4965338;28;20022;-80
2022/05/24 05:33:26;;;;;;;2.50;0.90;;;;;;;17.09;65.91;98570.38;4974514;28;20034;-80
2022/05/24 05:35:51;;;;;;;2.97;1.10;;;;;;;17.05;65.93;98566.44;4955527;28;20023;-81
2022/05/24 05:38:17;;;;;;;3.55;1.20;;;;;;;17.17;67.28;98572.84;4955007;28;20019;-81
2022/05/24 05:40:42;;;;;;;2.28;1.00;;;;;;;17.26;66.65;98576.94;4974169;28;20026;-81
2022/05/24 05:43:08;;;;;;;1.92;0.95;;;;;;;17.24;66.78;98579.03;4973615;28;20106;-81
2022/05/24 05:45:34;;;;;;;2.42;1.20;;;;;;;17.10;66.55;98576.63;4969337;28;20035;-82
2022/05/24 05:47:59;;;;;;;2.30;0.95;;;;;;;16.98;66.86;98571.84;4957547;28;20026;-82
2022/05/24 05:50:25;;;;;;;2.35;0.90;;;;;;;17.07;67.57;98572.47;4973187;28;20077;-81
2022/05/24 05:52:50;;;;;;;2.13;0.82;;;;;;;17.10;67.42;98572.03;4972780;28;20093;-78
2022/05/24 05:55:16;;;;;;;3.08;0.95;;;;;;;17.03;66.84;98581.19;4971117;28;20377;-77
2022/05/24 05:57:41;;;;;;;2.35;1.05;;;;;;;16.89;66.55;98583.09;4972810;28;20035;-77
2022/05/24 06:00:08;;;;;;;3.80;1.20;;;;;;;16.92;66.46;98588.09;4971836;28;20033;-78
2022/05/24 06:02:34;;;;;;;3.00;1.35;;;;;;;16.89;66.42;98591.22;4966522;28;20038;-77
2022/05/24 06:04:59;;;;;;;2.40;1.33;;;;;;;16.89;66.52;98597.44;4967378;28;20054;-77
2022/05/24 06:07:25;;;;;;;3.35;1.33;;;;;;;16.91;66.06;98603.44;4962525;28;20046;-78
2022/05/24 06:09:50;;;;;;;5.13;1.50;;;;;;;16.92;66.47;98605.13;4970825;28;20113;-78
2022/05/24 06:12:15;;;;;;;3.75;1.30;;;;;;;16.88;65.69;98614.69;4970887;28;20481;-78
2022/05/24 06:14:41;;;;;;;4.35;1.38;;;;;;;16.82;66.23;98610.13;4976518;28;20034;-76
2022/05/24 06:17:06;;;;;;;3.20;1.63;;;;;;;16.90;66.82;98611.75;4973815;28;20380;-77
2022/05/24 06:19:32;;;;;;;4.45;1.60;;;;;;;16.91;66.59;98616.13;4959396;28;20035;-77
2022/05/24 06:21:57;;;;;;;4.38;1.48;;;;;;;16.77;67.03;98623.44;4976318;28;20027;-76
2022/05/24 06:24:22;;;;;;;3.03;1.40;;;;;;;16.76;67.40;98627.19;4977443;28;20038;-78
2022/05/24 06:26:50;;;;;;;3.15;1.30;;;;;;;16.90;67.29;98630.66;4973689;28;20473;-77
2022/05/24 06:29:16;;;;;;;4.30;1.45;;;;;;;16.96;66.60;98632.53;4964185;28;20044;-77
2022/05/24 06:31:44;;;;;;;4.00;1.60;;;;;;;17.05;66.85;98633.97;4975813;28;20148;-78
2022/05/24 06:34:10;;;;;;;2.58;1.42;;;;;;;17.03;67.85;98638.78;4973374;28;20023;-76
2022/05/24 06:36:36;;;;;;;4.03;1.25;;;;;;;17.01;67.45;98635.41;4977740;28;20033;-77
2022/05/24 06:39:01;;;;;;;3.42;1.40;;;;;;;17.02;67.32;98641.66;4977712;28;20114;-78
2022/05/24 06:41:26;;;;;;;3.75;1.30;;;;;;;17.02;67.49;98649.75;4977374;28;20499;-78
2022/05/24 06:43:52;;;;;;;3.85;1.35;;;;;;;17.20;68.00;98652.63;4976740;28;20022;-78
2022/05/24 06:46:18;;;;;;;3.42;1.17;;;;;;;17.14;66.59;98658.88;4973624;28;20031;-79
2022/05/24 06:48:44;;;;;;;2.38;1.30;;;;;;;17.07;66.24;98660.78;4974787;28;20034;-78
2022/05/24 06:51:11;;;;;;;3.38;1.23;;;;;;;17.10;66.47;98663.88;4976760;28;20555;-81
2022/05/24 06:53:38;;;;;;;3.28;0.95;;;;;;;17.20;67.58;98668.84;4955413;28;20545;-80
2022/05/24 06:56:05;;;;;;;2.97;1.10;;;;;;;17.03;67.32;98659.50;4960557;28;20030;-80
2022/05/24 06:58:31;;;;;;;2.72;1.13;;;;;;;17.06;66.65;98662.66;4970140;28;20500;-79
2022/05/24 07:03:40;;;;;;;3.55;1.00;;;;;;;17.04;66.19;98672.84;4971879;28;20069;-79
2022/05/24 07:06:05;;;;;;;3.40;1.02;;;;;;;17.10;67.04;98666.59;4976030;28;20070;-80
2022/05/24 07:08:30;;;;;;;3.63;1.00;;;;;;;16.99;66.74;98668.03;4975080;28;20481;-78
2022/05/24 07:10:56;;;;;;;1.95;1.02;;;;;;;17.06;66.78;98661.81;4975037;28;20030;-79
2022/05/24 07:13:21;;;;;;;2.75;1.30;;;;;;;17.04;66.09;98678.25;4975619;28;20027;-83
2022/05/24 07:15:48;;;;;;;1.90;0.98;;;;;;;17.07;66.47;98677.00;4975865;28;20385;-82
2022/05/24 07:18:13;;;;;;;2.78;1.13;;;;;;;16.99;66.32;98676.16;4958708;28;20102;-80
2022/05/24 07:20:39;;;;;;;3.03;1.20;;;;;;;17.09;66.99;98669.50;4958846;28;20121;-83
2022/05/24 07:23:14;;;;;;;2.53;1.17;;;;;;;17.03;67.43;98675.72;4958869;28;20026;-79
2022/05/24 07:25:41;;;;;;;1.48;1.00;;;;;;;17.15;66.24;98690.28;4939783;29;20035;-89
2022/05/24 07:28:07;;;;;;;3.05;0.98;;;;;;;17.23;65.94;98677.34;4939776;29;20073;-82
2022/05/24 07:30:33;;;;;;;1.73;0.98;;;;;;;17.30;65.97;98675.47;4955092;29;20039;-89
2022/05/24 07:32:58;;;;;;;3.10;1.15;;;;;;;17.28;65.38;98695.63;4955827;29;20030;-83
2022/05/24 07:35:23;;;;;;;3.22;1.20;;;;;;;17.28;65.27;98690.22;4956681;29;20034;-86
2022/05/24 07:37:49;;;;;;;2.38;1.20;;;;;;;17.29;66.25;98706.22;4955271;28;20034;-81
2022/05/24 07:45:48;;;;;;;3.47;1.00;;;;;;;17.27;66.19;98694.81;4954897;29;20037;-82
2022/05/24 07:48:14;;;;;;;2.20;1.05;;;;;;;17.28;64.99;98695.63;4945946;29;20031;-85
2022/05/24 07:50:40;;;;;;;2.92;1.08;;;;;;;17.30;65.30;98696.25;4938763;29;20390;-84
2022/05/24 07:53:06;;;;;;;3.50;1.00;;;;;;;17.34;64.89;98699.34;4939064;29;20027;-84
2022/05/24 07:55:31;;;;;;;2.85;0.90;;;;;;;17.26;64.40;98698.56;4956391;29;20089;-80
2022/05/24 07:57:58;;;;;;;3.55;1.10;;;;;;;17.25;64.37;98701.47;4956139;29;20057;-85
2022/05/24 08:00:23;;;;;;;1.08;0.70;;;;;;;17.37;65.09;98715.97;4939006;29;20389;-85
2022/05/24 08:02:50;;;;;;;2.53;0.77;;;;;;;17.41;63.99;98719.09;4956306;29;20470;-85
2022/05/24 08:05:16;;;;;;;2.30;0.82;;;;;;;17.44;64.83;98729.47;4956111;29;20069;-83
2022/05/24 08:07:41;;;;;;;1.67;0.98;;;;;;;17.47;64.75;98729.03;4938878;29;20086;-82
2022/05/24 08:10:07;;;;;;;2.30;0.85;;;;;;;17.55;64.00;98748.59;4956122;29;20035;-84
2022/05/24 08:12:33;;;;;;;1.13;0.80;;;;;;;17.52;64.23;98730.09;4956489;29;20381;-87
2022/05/24 08:14:58;;;;;;;2.60;0.90;;;;;;;17.47;63.33;98731.75;4939286;29;20035;-82
2022/05/24 08:17:25;;;;;;;1.90;0.77;;;;;;;17.48;63.07;98746.94;4956863;28;20106;-92
2022/05/24 08:19:52;;;;;;;2.47;0.80;;;;;;;17.35;62.77;98742.38;4956399;29;20031;-84
2022/05/24 08:22:18;;;;;;;2.53;0.90;;;;;;;17.37;63.00;98755.69;4956591;28;20039;-80
2022/05/24 08:24:43;;;;;;;3.17;0.85;;;;;;;17.29;62.46;98748.63;4968830;28;20117;-82
2022/05/24 08:27:11;;;;;;;3.00;0.93;;;;;;;17.30;63.21;98759.25;4958517;28;20030;-88
2022/05/24 08:29:36;;;;;;;2.78;1.02;;;;;;;17.27;62.20;98756.97;4976048;28;20023;-83
2022/05/24 08:32:02;;;;;;;1.35;0.70;;;;;;;17.36;63.31;98765.66;4976048;28;20045;-87
2022/05/24 08:34:27;;;;;;;1.65;0.77;;;;;;;17.37;63.58;98761.09;4975346;28;20114;-88
2022/05/24 08:36:53;;;;;;;2.72;0.80;;;;;;;17.36;64.28;98760.25;4975214;28;20030;-88
2022/05/24 08:39:18;;;;;;;1.23;0.70;;;;;;;17.37;63.89;98778.16;4958252;28;20037;-92
2022/05/24 08:41:59;;;;;;;2.90;0.88;;;;;;;17.36;62.46;98768.38;4975517;28;20031;-91
2022/05/24 08:50:02;;;;;;;1.63;0.77;;;;;;;17.40;62.85;98776.88;4961203;28;20085;-91
2022/05/24 08:52:33;;;;;;;1.40;0.80;;;;;;;17.44;62.69;98805.16;4942321;28;20484;-90
2022/05/24 08:54:59;;;;;;;1.88;0.80;;;;;;;17.45;63.15;98793.31;4958641;28;20022;-85
2022/05/24 08:57:39;;;;;;;2.42;0.80;;;;;;;17.49;63.34;98791.84;4974364;28;20085;-78
2022/05/24 09:00:10;;;;;;;2.15;0.80;;;;;;;17.47;63.11;98796.63;4957115;28;20023;-81
2022/05/24 09:02:37;;;;;;;1.80;1.00;;;;;;;17.43;62.56;98793.50;4957485;28;20031;-79
2022/05/24 09:05:02;;;;;;;1.85;0.90;;;;;;;17.40;62.20;98806.63;4956930;28;20046;-81
2022/05/24 09:07:45;;;;;;;1.38;0.65;;;;;;;17.32;62.73;98796.88;4973961;28;20057;-80
2022/05/24 09:10:17;;;;;;;1.58;0.77;;;;;;;17.39;62.61;98797.69;4957016;28;20023;-81
2022/05/24 09:12:49;;;;;;;4.18;0.82;;;;;;;17.48;63.12;98803.69;4956695;28;20500;-81
2022/05/24 09:15:37;;;;;;;2.15;0.90;;;;;;;17.46;61.59;98805.78;4971766;28;20540;-79
2022/05/24 09:18:34;;;;;;;1.80;0.93;;;;;;;17.56;62.44;98790.81;4955173;28;20062;-77
2022/05/24 09:20:59;;;;;;;3.00;1.02;;;;;;;17.66;62.93;98803.06;4955374;28;20470;-77
2022/05/24 09:23:33;;;;;;;2.33;0.80;;;;;;;17.85;63.91;98792.19;4973391;28;20041;-73
2022/05/24 09:26:02;;;;;;;1.05;0.90;;;;;;;17.77;61.80;98794.31;4956701;28;20117;-77
2022/05/24 09:28:48;;;;;;;2.67;0.90;;;;;;;17.84;62.94;98806.78;4973377;28;20030;-77
2022/05/24 09:31:21;;;;;;;2.88;0.90;;;;;;;17.78;62.49;98809.50;4974022;28;20038;-78
2022/05/24 09:33:52;;;;;;;2.13;1.00;;;;;;;17.86;62.34;98804.69;4956314;28;20380;-79
2022/05/24 09:36:40;;;;;;;4.40;1.00;;;;;;;17.82;63.33;98813.44;4956208;28;20403;-78
2022/05/24 09:39:30;;;;;;;2.43;0.80;;;;;;;17.81;62.52;98809.91;4973467;28;20404;-78
2022/05/24 09:42:03;;;;;;;2.25;0.73;;;;;;;17.78;62.38;98833.84;4973709;28;20054;-77
2022/05/24 09:44:42;;;;;;;1.48;0.70;;;;;;;17.82;62.21;98818.84;4973790;28;20031;-79
2022/05/24 09:47:29;;;;;;;0.98;0.60;;;;;;;17.87;63.31;98827.97;4973395;28;20035;-78
2022/05/24 09:50:25;;;;;;;2.03;0.80;;;;;;;17.83;61.62;98821.34;4973000;28;20035;-82
2022/05/24 09:53:03;;;;;;;3.38;0.88;;;;;;;17.90;62.40;98814.03;4973357;28;20034;-79
2022/05/24 09:55:30;;;;;;;2.15;0.88;;;;;;;17.91;61.76;98828.38;4975179;28;20081;-77
2022/05/24 09:58:22;;;;;;;1.42;0.75;;;;;;;17.88;61.54;98820.69;4958712;28;20038;-88
2022/05/24 10:00:52;;;;;;;1.85;0.98;;;;;;;17.85;61.39;98826.53;4977148;28;20035;-92
2022/05/24 10:03:32;;;;;;;1.35;0.90;;;;;;;17.90;62.33;98835.66;4977730;28;20520;-84
2022/05/24 10:06:06;;;;;;;2.08;0.88;;;;;;;17.96;62.19;98831.28;4979544;28;20106;-79
2022/05/24 10:08:43;;;;;;;1.88;0.77;;;;;;;18.02;62.50;98833.16;4974608;28;20018;-84
2022/05/24 10:11:35;;;;;;;2.67;0.90;;;;;;;18.02;62.12;98833.16;4971348;28;20018;-78
2022/05/24 10:14:28;;;;;;;2.30;0.80;;;;;;;18.02;60.60;98840.44;4973417;28;20089;-82
2022/05/24 10:17:49;;;;;;;2.20;0.90;;;;;;;18.05;61.96;98845.44;4955486;28;20033;-79
2022/05/24 10:20:19;;;;;;;1.63;0.80;;;;;;;18.13;63.24;98842.50;4914706;29;20509;-76
2022/05/24 10:23:09;;;;;;;1.55;0.68;;;;;;;17.95;60.70;98843.16;4946635;28;20051;-78
2022/05/24 10:25:43;;;;;;;2.10;0.95;;;;;;;17.90;60.06;98843.78;4941404;28;20067;-79
2022/05/24 10:28:36;;;;;;;1.83;0.85;;;;;;;17.93;59.75;98861.47;4947466;28;20031;-80
2022/05/24 10:31:20;;;;;;;2.78;0.80;;;;;;;17.95;60.38;98856.69;4942424;29;20028;-79
2022/05/24 10:39:59;;;;;;;1.35;0.75;;;;;;;18.02;59.72;98846.69;4936680;29;20034;-79
2022/05/24 10:43:00;;;;;;;1.65;1.00;;;;;;;18.03;60.63;98850.22;4940459;28;20039;-80
2022/05/24 10:45:49;;;;;;;2.17;0.80;;;;;;;18.05;61.52;98843.56;4930247;29;20035;-79
2022/05/24 10:48:22;;;;;;;1.75;0.70;;;;;;;18.10;60.78;98849.16;4940055;29;20679;-80
2022/05/24 10:50:55;;;;;;;1.00;0.50;;;;;;;18.12;61.14;98863.31;4954500;29;20035;-80
2022/05/24 10:53:26;;;;;;;2.15;0.90;;;;;;;18.12;61.01;98852.47;4935550;29;20071;-79
2022/05/24 10:56:03;;;;;;;1.77;0.80;;;;;;;18.17;60.57;98846.41;4934485;29;20098;-79
2022/05/24 10:58:33;;;;;;;3.08;0.80;;;;;;;18.17;59.27;98857.25;4950383;29;20379;-79
2022/05/24 11:01:09;;;;;;;2.22;0.68;;;;;;;18.18;59.65;98846.22;4953128;28;20123;-79
2022/05/24 11:03:44;;;;;;;2.05;0.63;;;;;;;18.21;60.79;98858.47;4958587;28;20020;-78
2022/05/24 11:06:40;;;;;;;0.90;0.73;;;;;;;18.25;59.93;98855.13;4973022;28;20035;-79
2022/05/24 11:09:16;;;;;;;1.58;0.70;;;;;;;18.25;60.14;98857.00;4934941;29;20122;-81
2022/05/24 11:12:03;;;;;;;1.35;0.90;;;;;;;18.28;60.02;98851.16;4941223;29;20444;-91
2022/05/24 11:14:51;;;;;;;3.80;0.85;;;;;;;18.37;60.97;98846.31;4963059;28;20023;-90
2022/05/24 11:17:18;;;;;;;1.13;0.70;;;;;;;18.44;61.37;98839.84;4938752;29;20028;-87
2022/05/24 11:19:52;;;;;;;2.60;0.98;;;;;;;18.43;59.45;98846.28;4940479;29;20032;-79
2022/05/24 11:22:17;;;;;;;1.73;0.70;;;;;;;18.49;60.70;98847.34;4948770;28;20019;-86
2022/05/24 11:24:52;;;;;;;1.02;0.75;;;;;;;18.53;60.66;98843.97;4957941;28;20050;-84
2022/05/24 11:27:25;;;;;;;1.80;0.47;;;;;;;18.57;61.39;98847.09;4952113;28;20031;-83
2022/05/24 11:29:54;;;;;;;2.95;0.60;;;;;;;18.57;60.03;98852.50;4943659;28;20078;-83
2022/05/24 11:32:43;;;;;;;1.10;0.63;;;;;;;18.53;57.86;98854.81;4978163;28;20054;-87
2022/05/24 11:35:18;;;;;;;1.30;0.60;;;;;;;18.61;59.33;98848.31;4943836;28;20113;-85
2022/05/24 11:37:45;;;;;;;1.23;0.60;;;;;;;18.69;59.47;98864.34;4976962;28;20023;-86
2022/05/24 11:40:36;;;;;;;1.52;0.57;;;;;;;18.66;58.82;98863.94;4959666;28;20019;-85
2022/05/24 11:43:08;;;;;;;2.05;0.70;;;;;;;18.71;59.52;98856.00;4945797;28;20035;-84
2022/05/24 11:45:34;;;;;;;1.83;0.63;;;;;;;18.66;58.20;98862.06;4969412;28;20119;-81
2022/05/24 11:48:05;;;;;;;0.63;0.60;;;;;;;18.58;57.54;98856.03;4976707;28;20054;-84
2022/05/24 11:50:30;;;;;;;5.00;1.23;;;;;;;18.55;58.75;98881.69;4958841;28;20081;-85
2022/05/24 11:53:01;;;;;;;1.60;0.70;;;;;;;18.49;56.92;98877.94;4957615;28;20113;-84
2022/05/24 11:55:45;;;;;;;1.15;0.60;;;;;;;18.47;57.76;98881.94;4972611;28;20039;-86
2022/05/24 11:58:20;;;;;;;0.95;0.60;;;;;;;18.52;59.00;98882.94;4948616;28;20023;-84
2022/05/24 12:01:05;;;;;;;0.70;0.70;;;;;;;18.50;57.59;98882.31;4975140;28;20026;-83
2022/05/24 12:09:14;;;;;;;1.58;0.63;;;;;;;18.61;58.93;98899.75;4956064;29;20115;-79
2022/05/24 12:11:40;;;;;;;1.55;0.60;;;;;;;18.61;59.45;98901.63;4956025;28;20109;-88
2022/05/24 12:14:35;;;;;;;1.45;0.60;;;;;;;18.49;57.74;98894.19;4924500;29;20037;-86
2022/05/24 12:17:00;;;;;;;1.63;0.80;;;;;;;18.50;57.25;98898.56;4955146;28;20461;-87
2022/05/24 12:19:35;;;;;;;2.22;0.60;;;;;;;18.48;56.70;98910.66;4957364;29;20039;-89
2022/05/24 12:22:04;;;;;;;0.95;0.70;;;;;;;18.46;56.75;98896.50;4970387;28;20035;-86
2022/05/24 12:24:35;;;;;;;1.40;0.80;;;;;;;18.45;55.38;98900.25;4958624;28;20049;-81
2022/05/24 12:27:23;;;;;;;2.40;1.05;;;;;;;18.52;56.81;98903.75;4958933;28;20054;-83
2022/05/24 12:29:54;;;;;;;1.20;0.70;;;;;;;18.60;57.70;98903.53;4943560;29;20469;-86
2022/05/24 12:32:22;;;;;;;5.53;1.00;;;;;;;18.56;55.63;98910.41;4958170;28;20457;-84
2022/05/24 12:34:48;;;;;;;3.87;0.90;;;;;;;18.54;56.70;98909.78;4958691;28;20117;-84